Archival Weather

Phoenix Goodyear

Goodyear, Arizona (KGYR)

Report from: Wednesday, December 6, 2023 3:47 PM MST
Current time: Wednesday, April 24, 2024 12:08 PM MST

Current weather – Weather history – Daily summaries
Weather forecast

Temperature27.0°C (80.6°F)
Heat index26.3°C (79.3°F)
Dew point0.0°C (32.0°F)
Winds 4 kts (2.1 m/s, 4.6 mph) Vrb
Winds variableWinds variable
Visibility10 mi. (16.1 km)
Clouds Few clouds 25,000 ft. (7,620 m)
Altimeter29.99 in.Hg (1016 mB)
Relative humidity17 %
Density altitude1,404 ft. (428 m)
Flight conditions Visual Meteorological Conditions
Raw dataKGYR 062247Z VRB04KT 10SM FEW250 27/00 A2999
An error has occurred. This application may no longer respond until reloaded. Reload 🗙